createdAt,value
2023-08-10T00:02:24.648Z,8.68
2023-08-10T00:04:51.580Z,7.30
2023-08-10T00:07:19.434Z,6.65
2023-08-10T00:09:46.355Z,8.88
2023-08-10T00:12:13.339Z,14.02
2023-08-10T00:14:40.267Z,8.23
2023-08-10T00:17:07.298Z,7.13
2023-08-10T00:19:34.245Z,7.13
2023-08-10T00:22:01.314Z,9.00
2023-08-10T00:24:28.289Z,8.65
2023-08-10T00:26:55.166Z,7.45
2023-08-10T00:29:22.325Z,8.25
2023-08-10T00:31:49.209Z,14.15
2023-08-10T00:34:16.210Z,8.85
2023-08-10T00:36:43.139Z,11.68
2023-08-10T00:39:10.041Z,10.20
2023-08-10T00:41:37.349Z,12.80
2023-08-10T00:44:05.007Z,11.75
2023-08-10T00:46:33.297Z,9.40
2023-08-10T00:49:00.410Z,11.07
2023-08-10T00:51:27.333Z,9.05
2023-08-10T00:53:54.279Z,12.45
2023-08-10T00:56:21.171Z,10.25
2023-08-10T00:58:48.672Z,11.68
2023-08-10T01:01:18.092Z,9.85
2023-08-10T01:03:45.152Z,14.07
2023-08-10T01:06:36.991Z,8.82
2023-08-10T01:09:21.035Z,11.57
2023-08-10T01:12:10.611Z,11.32
2023-08-10T01:14:58.299Z,10.55
2023-08-10T01:17:28.816Z,10.40
2023-08-10T01:19:56.079Z,11.82
2023-08-10T01:22:50.983Z,9.95
2023-08-10T01:25:17.962Z,10.18
2023-08-10T01:27:46.029Z,12.07
2023-08-10T01:30:13.390Z,10.40
2023-08-10T01:32:40.430Z,8.68
2023-08-10T01:35:07.844Z,10.40
2023-08-10T01:37:34.822Z,8.70
2023-08-10T01:40:02.063Z,10.88
2023-08-10T01:42:29.396Z,9.57
2023-08-10T01:44:56.312Z,10.73
2023-08-10T01:47:30.372Z,9.32
2023-08-10T01:49:57.820Z,8.82
2023-08-10T01:52:28.500Z,9.13
2023-08-10T01:54:55.504Z,7.97
2023-08-10T01:57:22.453Z,8.75
2023-08-10T01:59:50.335Z,9.90
2023-08-10T02:02:17.252Z,10.40
2023-08-10T02:04:44.200Z,8.88
2023-08-10T02:07:11.104Z,8.93
2023-08-10T02:09:38.888Z,12.68
2023-08-10T02:12:06.386Z,13.38
2023-08-10T02:14:33.618Z,13.23
2023-08-10T02:17:01.956Z,11.85
2023-08-10T02:19:29.006Z,10.40
2023-08-10T02:21:55.879Z,10.38
2023-08-10T02:24:23.475Z,10.90
2023-08-10T02:26:51.894Z,11.40
2023-08-10T02:29:19.021Z,12.02
2023-08-10T02:31:47.369Z,13.00
2023-08-10T02:34:15.011Z,10.02
2023-08-10T02:36:41.985Z,11.25
2023-08-10T02:39:08.954Z,9.30
2023-08-10T02:41:36.386Z,9.45
2023-08-10T02:44:04.523Z,11.18
2023-08-10T02:46:31.484Z,9.77
2023-08-10T02:48:58.400Z,10.77
2023-08-10T02:51:25.392Z,11.48
2023-08-10T02:53:52.331Z,11.27
2023-08-10T02:56:19.320Z,14.18
2023-08-10T02:58:46.218Z,11.95
2023-08-10T03:01:14.123Z,15.27
2023-08-10T03:03:42.089Z,14.05
2023-08-10T03:06:08.996Z,13.07
2023-08-10T03:08:36.540Z,12.52
2023-08-10T03:11:03.763Z,11.50
2023-08-10T03:13:30.699Z,10.27
2023-08-10T03:15:57.711Z,12.23
2023-08-10T03:18:25.015Z,11.85
2023-08-10T03:20:52.181Z,14.48
2023-08-10T03:23:19.068Z,11.07
2023-08-10T03:25:46.328Z,11.13
2023-08-10T03:28:13.309Z,10.27
2023-08-10T03:30:42.527Z,10.88
2023-08-10T03:33:09.839Z,10.85
2023-08-10T03:35:36.891Z,9.88
2023-08-10T03:38:05.844Z,11.57
2023-08-10T03:40:32.792Z,13.73
2023-08-10T03:42:59.777Z,11.38
2023-08-10T03:45:26.679Z,12.88
2023-08-10T03:47:55.901Z,9.63
2023-08-10T03:50:22.974Z,9.73
2023-08-10T03:52:49.860Z,11.43
2023-08-10T03:55:16.912Z,10.20
2023-08-10T03:57:43.840Z,9.87
2023-08-10T04:00:11.458Z,12.02
2023-08-10T04:02:38.641Z,13.33
2023-08-10T04:05:07.550Z,12.95
2023-08-10T04:07:34.776Z,11.18
2023-08-10T04:10:02.146Z,10.80
2023-08-10T04:12:29.086Z,10.00
2023-08-10T04:14:56.119Z,11.00
2023-08-10T04:17:23.064Z,10.90
2023-08-10T04:19:50.001Z,9.30
2023-08-10T04:22:16.900Z,13.60
2023-08-10T04:24:43.889Z,12.15
2023-08-10T04:27:10.922Z,11.60
2023-08-10T04:29:37.885Z,12.67
2023-08-10T04:32:05.720Z,13.60
2023-08-10T04:34:33.617Z,13.82
2023-08-10T04:37:00.530Z,11.07
2023-08-10T04:39:28.534Z,14.93
2023-08-10T04:41:55.473Z,12.73
2023-08-10T04:44:22.381Z,11.85
2023-08-10T04:46:49.303Z,12.60
2023-08-10T04:49:16.213Z,10.57
2023-08-10T04:51:43.256Z,12.07
2023-08-10T04:54:10.217Z,13.20
2023-08-10T04:56:37.741Z,12.63
2023-08-10T04:59:05.788Z,13.45
2023-08-10T05:01:34.825Z,10.95
2023-08-10T05:04:01.801Z,9.52
2023-08-10T05:06:32.152Z,24.67
2023-08-10T05:08:59.042Z,10.95
2023-08-10T05:11:27.940Z,15.82
2023-08-10T05:13:55.894Z,11.23
2023-08-10T05:16:23.094Z,7.97
2023-08-10T05:18:51.617Z,11.55
2023-08-10T05:21:18.601Z,10.30
2023-08-10T05:23:45.649Z,10.60
2023-08-10T05:26:13.226Z,10.18
2023-08-10T05:28:40.171Z,11.88
2023-08-10T05:31:07.070Z,12.70
2023-08-10T05:33:34.068Z,13.40
2023-08-10T05:36:00.964Z,18.80
2023-08-10T05:38:27.874Z,13.20
2023-08-10T05:40:56.416Z,12.75
2023-08-10T05:43:23.889Z,12.82
2023-08-10T05:45:52.876Z,11.45
2023-08-10T05:48:19.802Z,13.70
2023-08-10T05:50:46.838Z,11.05
2023-08-10T05:53:14.196Z,14.13
2023-08-10T05:55:41.274Z,11.98
2023-08-10T05:58:08.311Z,12.73
2023-08-10T06:00:37.691Z,14.43
2023-08-10T06:03:07.212Z,10.38
2023-08-10T06:05:36.530Z,12.35
2023-08-10T06:08:03.628Z,11.68
2023-08-10T06:10:30.612Z,13.68
2023-08-10T06:12:57.567Z,11.93
2023-08-10T06:15:25.545Z,11.57
2023-08-10T06:17:52.497Z,11.48
2023-08-10T06:20:23.036Z,16.05
2023-08-10T06:22:50.260Z,15.45
2023-08-10T06:25:17.794Z,12.07
2023-08-10T06:27:44.837Z,13.43
2023-08-10T06:30:14.561Z,10.63
2023-08-10T06:32:41.715Z,13.93
2023-08-10T06:35:10.246Z,10.90
2023-08-10T06:37:38.738Z,12.52
2023-08-10T06:40:09.978Z,9.85
2023-08-10T06:42:37.833Z,10.35
2023-08-10T06:45:06.023Z,11.85
2023-08-10T06:47:34.483Z,12.02
2023-08-10T06:50:01.629Z,8.02
2023-08-10T06:52:28.650Z,8.88
2023-08-10T06:54:55.820Z,7.13
2023-08-10T06:57:22.906Z,12.27
2023-08-10T07:02:19.793Z,7.85
2023-08-10T07:04:47.152Z,6.45
2023-08-10T07:07:15.484Z,8.50
2023-08-10T07:09:43.488Z,10.68
2023-08-10T07:12:11.182Z,10.27
2023-08-10T07:14:56.861Z,10.52
2023-08-10T07:17:26.747Z,8.90
2023-08-10T07:19:54.798Z,4.90
2023-08-10T07:22:21.783Z,5.35
2023-08-10T07:24:49.075Z,6.18
2023-08-10T07:27:16.428Z,7.75
2023-08-10T07:29:43.339Z,6.28
2023-08-10T07:32:11.999Z,6.90
2023-08-10T07:34:38.979Z,8.65
2023-08-10T07:37:05.891Z,5.60
2023-08-10T07:39:33.390Z,4.80
2023-08-10T07:42:00.399Z,6.95
2023-08-10T07:44:27.278Z,4.82
2023-08-10T07:46:54.198Z,4.85
2023-08-10T07:49:21.321Z,6.25
2023-08-10T07:51:48.606Z,5.05
2023-08-10T07:54:16.033Z,4.82
2023-08-10T07:56:43.636Z,5.03
2023-08-10T07:59:10.558Z,4.68
2023-08-10T08:01:37.498Z,4.72
2023-08-10T08:04:04.840Z,4.78
2023-08-10T08:06:32.716Z,4.05
2023-08-10T08:08:59.875Z,4.07
2023-08-10T08:11:26.828Z,4.68
2023-08-10T08:13:53.776Z,6.63
2023-08-10T08:16:20.707Z,5.15
2023-08-10T08:18:54.315Z,5.25
2023-08-10T08:21:22.368Z,3.97
2023-08-10T08:23:49.552Z,3.50
2023-08-10T08:26:16.668Z,3.17
2023-08-10T08:28:44.259Z,4.15
2023-08-10T08:31:11.554Z,3.42
2023-08-10T08:33:38.758Z,3.90
2023-08-10T08:36:06.332Z,3.90
2023-08-10T08:38:33.911Z,2.65
2023-08-10T08:41:05.562Z,2.97
2023-08-10T08:43:33.059Z,5.32
2023-08-10T08:46:00.278Z,3.03
2023-08-10T08:48:30.571Z,3.53
2023-08-10T08:50:58.214Z,2.95
2023-08-10T08:53:25.887Z,3.00
2023-08-10T08:55:53.843Z,5.43
2023-08-10T08:58:20.884Z,5.22
2023-08-10T09:00:55.036Z,3.72
2023-08-10T09:03:25.816Z,6.63
2023-08-10T09:05:53.229Z,2.85
2023-08-10T09:08:20.841Z,3.33
2023-08-10T09:10:48.335Z,3.00
2023-08-10T09:13:25.254Z,5.38
2023-08-10T09:16:13.075Z,2.85
2023-08-10T09:18:43.099Z,3.60
2023-08-10T09:21:20.365Z,3.35
2023-08-10T09:23:54.622Z,4.68
2023-08-10T09:26:22.718Z,4.60
2023-08-10T09:28:50.008Z,3.05
2023-08-10T09:31:23.882Z,2.38
2023-08-10T09:33:57.868Z,6.00
2023-08-10T09:36:28.641Z,4.32
2023-08-10T09:38:56.158Z,2.30
2023-08-10T09:41:23.861Z,3.42
2023-08-10T09:43:50.987Z,2.75
2023-08-10T09:46:18.084Z,4.60
2023-08-10T09:48:46.684Z,2.95
2023-08-10T09:51:14.251Z,3.10
2023-08-10T09:53:42.326Z,3.13
2023-08-10T09:56:09.458Z,3.58
2023-08-10T09:58:41.673Z,3.47
2023-08-10T10:01:15.093Z,6.35
2023-08-10T10:03:44.757Z,2.50
2023-08-10T10:06:12.322Z,6.30
2023-08-10T10:08:39.197Z,3.08
2023-08-10T10:11:12.336Z,3.15
2023-08-10T10:13:39.346Z,3.90
2023-08-10T10:16:08.141Z,5.10
2023-08-10T10:18:37.022Z,3.47
2023-08-10T10:21:04.068Z,4.18
2023-08-10T10:23:31.771Z,4.30
2023-08-10T10:26:04.184Z,3.33
2023-08-10T10:28:32.894Z,2.45
2023-08-10T10:31:06.244Z,4.18
2023-08-10T10:33:34.374Z,3.28
2023-08-10T10:38:48.669Z,2.83
2023-08-10T10:41:19.155Z,4.72
2023-08-10T10:43:46.129Z,3.78
2023-08-10T10:46:34.934Z,4.10
2023-08-10T10:49:05.521Z,4.40
2023-08-10T10:51:32.514Z,2.30
2023-08-10T10:53:59.648Z,4.82
2023-08-10T10:56:27.081Z,4.80
2023-08-10T10:58:54.238Z,4.13
2023-08-10T11:01:24.084Z,3.45
2023-08-10T11:03:55.059Z,3.60
2023-08-10T11:06:22.637Z,4.22
2023-08-10T11:08:52.450Z,4.68
2023-08-10T11:11:19.428Z,5.97
2023-08-10T11:13:46.556Z,3.55
2023-08-10T11:16:14.218Z,4.03
2023-08-10T11:18:59.400Z,5.10
2023-08-10T11:21:27.313Z,12.45
2023-08-10T11:23:59.164Z,5.63
2023-08-10T11:26:26.222Z,6.93
2023-08-10T11:28:53.324Z,5.97
2023-08-10T11:31:20.397Z,2.95
2023-08-10T11:33:47.398Z,3.72
2023-08-10T11:36:14.400Z,3.13
2023-08-10T11:38:47.212Z,2.72
2023-08-10T11:41:14.332Z,3.70
2023-08-10T11:43:43.477Z,6.38
2023-08-10T11:46:10.986Z,2.88
2023-08-10T11:48:39.768Z,4.35
2023-08-10T11:51:08.671Z,4.05
2023-08-10T11:53:40.599Z,7.97
2023-08-10T11:56:09.817Z,3.63
2023-08-10T11:58:36.922Z,4.72
2023-08-10T12:01:08.302Z,3.45
2023-08-10T12:03:36.703Z,4.05
2023-08-10T12:06:08.321Z,5.18
2023-08-10T12:08:43.574Z,4.30
2023-08-10T12:11:15.859Z,6.10
2023-08-10T12:13:46.286Z,3.28
2023-08-10T12:16:13.834Z,4.22
2023-08-10T12:18:41.024Z,2.78
2023-08-10T12:21:08.021Z,6.15
2023-08-10T12:23:35.190Z,3.22
2023-08-10T12:26:02.105Z,5.35
2023-08-10T12:28:30.008Z,4.65
2023-08-10T12:30:57.010Z,5.85
2023-08-10T12:33:25.155Z,5.78
2023-08-10T12:35:52.358Z,4.38
2023-08-10T12:38:22.176Z,6.22
2023-08-10T12:40:49.125Z,5.38
2023-08-10T12:43:16.285Z,3.47
2023-08-10T12:45:43.315Z,2.78
2023-08-10T12:48:10.388Z,4.22
2023-08-10T12:50:37.489Z,4.05
2023-08-10T12:53:04.780Z,4.07
2023-08-10T12:55:33.365Z,3.00
2023-08-10T12:58:02.364Z,4.50
2023-08-10T13:00:29.306Z,4.28
2023-08-10T13:02:57.363Z,7.05
2023-08-10T13:05:24.376Z,5.93
2023-08-10T13:07:51.291Z,5.00
2023-08-10T13:10:18.230Z,4.70
2023-08-10T13:12:45.319Z,3.22
2023-08-10T13:15:12.600Z,3.10
2023-08-10T13:17:39.775Z,4.25
2023-08-10T13:20:08.499Z,4.00
2023-08-10T13:22:36.275Z,8.43
2023-08-10T13:25:05.154Z,3.85
2023-08-10T13:27:32.175Z,5.90
2023-08-10T13:29:59.145Z,7.88
2023-08-10T13:32:26.322Z,5.35
2023-08-10T13:34:54.067Z,4.28
2023-08-10T13:37:22.041Z,5.07
2023-08-10T13:39:48.982Z,2.88
2023-08-10T13:42:15.870Z,3.08
2023-08-10T13:44:42.745Z,3.85
2023-08-10T13:47:09.781Z,5.95
2023-08-10T13:49:49.397Z,4.97
2023-08-10T13:52:25.623Z,3.28
2023-08-10T13:54:52.696Z,3.17
2023-08-10T13:57:20.126Z,5.47
2023-08-10T13:59:47.970Z,6.53
2023-08-10T14:02:15.425Z,7.65
2023-08-10T14:04:42.504Z,8.10
2023-08-10T14:07:09.780Z,5.63
2023-08-10T14:09:36.724Z,2.83
2023-08-10T14:12:03.796Z,3.45
2023-08-10T14:14:30.980Z,5.57
2023-08-10T14:16:58.009Z,9.45
2023-08-10T14:19:25.134Z,12.80
2023-08-10T14:21:53.125Z,7.95
2023-08-10T14:24:20.079Z,4.22
2023-08-10T14:26:47.114Z,4.68
2023-08-10T14:29:14.042Z,4.97
2023-08-10T14:31:41.985Z,5.32
2023-08-10T14:34:11.526Z,4.10
2023-08-10T14:36:38.557Z,5.63
2023-08-10T14:39:05.729Z,3.75
2023-08-10T14:41:32.741Z,5.40
2023-08-10T14:43:59.729Z,4.55
2023-08-10T14:46:26.829Z,5.07
2023-08-10T14:48:54.914Z,4.50
2023-08-10T14:51:21.859Z,4.90
2023-08-10T14:53:48.810Z,5.85
2023-08-10T14:56:15.717Z,4.80
2023-08-10T14:58:42.641Z,9.20
2023-08-10T15:01:09.530Z,4.10
2023-08-10T15:03:36.820Z,5.80
2023-08-10T15:06:05.399Z,4.10
2023-08-10T15:08:32.404Z,4.57
2023-08-10T15:11:06.578Z,5.05
2023-08-10T15:13:33.961Z,4.75
2023-08-10T15:16:01.128Z,3.67
2023-08-10T15:18:28.277Z,7.05
2023-08-10T15:20:55.460Z,4.20
2023-08-10T15:23:39.933Z,7.07
2023-08-10T15:26:08.501Z,5.00
2023-08-10T15:28:37.639Z,5.35
2023-08-10T15:31:07.502Z,4.10
2023-08-10T15:33:34.533Z,4.65
2023-08-10T15:36:01.525Z,4.68
2023-08-10T15:38:28.488Z,5.20
2023-08-10T15:40:56.639Z,3.00
2023-08-10T15:43:23.677Z,5.55
2023-08-10T15:45:51.059Z,7.65
2023-08-10T15:48:18.551Z,6.57
2023-08-10T15:50:45.487Z,7.13
2023-08-10T15:53:12.431Z,5.13
2023-08-10T15:55:39.589Z,3.85
2023-08-10T15:58:06.478Z,4.65
2023-08-10T16:00:34.246Z,3.70
2023-08-10T16:03:01.387Z,2.83
2023-08-10T16:05:28.398Z,4.30
2023-08-10T16:07:55.402Z,2.58
2023-08-10T16:10:22.390Z,5.53
2023-08-10T16:12:49.332Z,6.28
2023-08-10T16:15:16.480Z,5.85
2023-08-10T16:17:43.507Z,6.35
2023-08-10T16:20:11.330Z,3.67
2023-08-10T16:22:41.570Z,5.35
2023-08-10T16:25:11.179Z,4.10
2023-08-10T16:27:39.598Z,3.70
2023-08-10T16:30:08.428Z,3.13
2023-08-10T16:32:35.343Z,10.43
2023-08-10T16:35:04.775Z,8.00
2023-08-10T16:37:31.742Z,8.68
2023-08-10T16:39:58.729Z,10.70
2023-08-10T16:42:25.666Z,8.02
2023-08-10T16:44:52.629Z,8.63
2023-08-10T16:47:19.536Z,9.13
2023-08-10T16:49:46.525Z,9.93
2023-08-10T16:52:13.574Z,6.72
2023-08-10T16:54:40.531Z,10.30
2023-08-10T16:57:07.550Z,6.85
2023-08-10T16:59:34.465Z,11.80
2023-08-10T17:02:01.378Z,9.05
2023-08-10T17:04:28.344Z,9.00
2023-08-10T17:06:55.256Z,7.53
2023-08-10T17:09:22.215Z,9.02
2023-08-10T17:11:49.168Z,11.98
2023-08-10T17:14:16.112Z,6.18
2023-08-10T17:16:42.992Z,10.07
2023-08-10T17:19:10.062Z,14.45
2023-08-10T17:21:37.065Z,9.60
2023-08-10T17:24:04.188Z,8.30
2023-08-10T17:26:31.851Z,8.80
2023-08-10T17:29:06.218Z,12.68
2023-08-10T17:31:37.141Z,10.52
2023-08-10T17:34:04.158Z,10.07
2023-08-10T17:36:32.111Z,12.95
2023-08-10T17:39:00.119Z,10.93
2023-08-10T17:41:27.024Z,11.95
2023-08-10T17:43:54.645Z,15.07
2023-08-10T17:46:27.136Z,13.15
2023-08-10T17:48:54.685Z,14.88
2023-08-10T17:51:21.626Z,7.90
2023-08-10T17:53:48.589Z,13.27
2023-08-10T17:56:15.518Z,12.63
2023-08-10T17:58:42.493Z,9.50
2023-08-10T18:01:10.730Z,15.93
2023-08-10T18:03:38.086Z,10.13
2023-08-10T18:06:05.211Z,6.55
2023-08-10T18:08:32.336Z,15.23
2023-08-10T18:10:59.326Z,12.77
2023-08-10T18:13:26.320Z,10.07
2023-08-10T18:15:53.273Z,7.78
2023-08-10T18:18:20.463Z,11.38
2023-08-10T18:20:47.432Z,11.18
2023-08-10T18:23:15.009Z,9.25
2023-08-10T18:25:42.020Z,7.78
2023-08-10T18:28:09.398Z,13.52
2023-08-10T18:30:36.432Z,11.48
2023-08-10T18:33:03.544Z,8.15
2023-08-10T18:35:30.522Z,12.60
2023-08-10T18:37:58.710Z,10.80
2023-08-10T18:40:39.052Z,9.57
2023-08-10T18:43:06.508Z,6.10
2023-08-10T18:45:33.782Z,10.85
2023-08-10T18:48:00.806Z,9.85
2023-08-10T18:50:28.188Z,11.02
2023-08-10T18:52:55.173Z,7.50
2023-08-10T18:55:22.300Z,19.13
2023-08-10T18:57:49.305Z,9.02
2023-08-10T19:00:16.497Z,9.68
2023-08-10T19:02:43.721Z,9.23
2023-08-10T19:05:10.802Z,16.52
2023-08-10T19:07:39.525Z,7.38
2023-08-10T19:10:07.586Z,9.48
2023-08-10T19:12:37.420Z,12.57
2023-08-10T19:15:04.572Z,10.35
2023-08-10T19:17:31.611Z,11.70
2023-08-10T19:19:58.656Z,11.85
2023-08-10T19:22:25.594Z,9.02
2023-08-10T19:24:52.558Z,10.48
2023-08-10T19:27:22.893Z,10.35
2023-08-10T19:29:49.977Z,8.73
2023-08-10T19:32:17.663Z,7.25
2023-08-10T19:34:44.733Z,5.13
2023-08-10T19:37:11.657Z,6.00
2023-08-10T19:39:38.596Z,5.50
2023-08-10T19:42:06.802Z,6.53
2023-08-10T19:44:34.953Z,7.03
2023-08-10T19:47:01.925Z,4.85
2023-08-10T19:49:29.295Z,7.40
2023-08-10T19:51:56.385Z,15.02
2023-08-10T19:54:23.290Z,9.05
2023-08-10T19:56:50.964Z,12.32
2023-08-10T19:59:18.025Z,10.30
2023-08-10T20:01:45.046Z,10.40
2023-08-10T20:04:12.048Z,5.72
2023-08-10T20:06:39.012Z,8.77
2023-08-10T20:09:07.034Z,10.40
2023-08-10T20:11:33.955Z,10.80
2023-08-10T20:14:00.895Z,7.32
2023-08-10T20:16:27.835Z,10.65
2023-08-10T20:18:54.767Z,9.70
2023-08-10T20:21:21.759Z,7.00
2023-08-10T20:23:48.688Z,11.07
2023-08-10T20:26:15.722Z,10.38
2023-08-10T20:28:42.625Z,10.00
2023-08-10T20:31:09.554Z,8.18
2023-08-10T20:33:36.485Z,8.27
2023-08-10T20:36:03.581Z,10.13
2023-08-10T20:38:30.467Z,11.07
2023-08-10T20:40:57.920Z,13.00
2023-08-10T20:43:24.991Z,10.63
2023-08-10T20:45:54.130Z,11.07
2023-08-10T20:48:21.054Z,10.30
2023-08-10T20:50:48.051Z,11.10
2023-08-10T20:53:14.960Z,10.40
2023-08-10T20:55:41.959Z,10.10
2023-08-10T20:58:09.459Z,7.22
2023-08-10T21:00:37.494Z,9.25
2023-08-10T21:03:05.376Z,7.53
2023-08-10T21:05:32.393Z,11.15
2023-08-10T21:08:00.047Z,8.30
2023-08-10T21:10:27.089Z,12.55
2023-08-10T21:12:54.120Z,9.50
2023-08-10T21:15:22.098Z,8.35
2023-08-10T21:17:50.133Z,9.88
2023-08-10T21:20:17.445Z,6.15
2023-08-10T21:22:44.558Z,8.88
2023-08-10T21:25:11.650Z,11.20
2023-08-10T21:27:38.560Z,5.55
2023-08-10T21:30:06.725Z,10.60
2023-08-10T21:32:34.766Z,7.78
2023-08-10T21:35:01.654Z,6.40
2023-08-10T21:37:28.587Z,7.25
2023-08-10T21:39:55.630Z,6.95
2023-08-10T21:42:26.347Z,4.90
2023-08-10T21:44:53.438Z,9.70
2023-08-10T21:47:21.439Z,8.10
2023-08-10T21:49:48.307Z,6.20
2023-08-10T21:52:15.286Z,6.68
2023-08-10T21:54:43.292Z,13.35
2023-08-10T21:57:10.413Z,6.40
2023-08-10T21:59:37.778Z,7.43
2023-08-10T22:02:05.089Z,6.78
2023-08-10T22:04:32.078Z,8.60
2023-08-10T22:06:59.024Z,7.90
2023-08-10T22:09:25.964Z,7.00
2023-08-10T22:11:52.895Z,6.28
2023-08-10T22:14:20.820Z,7.22
2023-08-10T22:16:47.779Z,6.38
2023-08-10T22:19:14.815Z,7.68
2023-08-10T22:21:41.735Z,5.75
2023-08-10T22:24:08.736Z,7.93
2023-08-10T22:26:35.778Z,8.82
2023-08-10T22:29:02.766Z,6.03
2023-08-10T22:31:30.513Z,6.63
2023-08-10T22:33:57.534Z,6.45
2023-08-10T22:36:24.470Z,5.95
2023-08-10T22:38:52.509Z,8.00
2023-08-10T22:41:20.458Z,8.10
2023-08-10T22:43:47.357Z,5.93
2023-08-10T22:46:14.433Z,9.25
2023-08-10T22:48:41.374Z,8.35
2023-08-10T22:51:12.376Z,7.07
2023-08-10T22:53:39.570Z,6.28
2023-08-10T22:56:06.531Z,6.35
2023-08-10T22:58:33.490Z,11.98
2023-08-10T23:01:01.947Z,8.43
2023-08-10T23:03:29.015Z,6.18
2023-08-10T23:05:55.988Z,13.10
2023-08-10T23:08:22.920Z,8.75
2023-08-10T23:10:49.873Z,7.20
2023-08-10T23:13:17.690Z,8.50
2023-08-10T23:15:45.017Z,7.78
2023-08-10T23:18:12.916Z,9.85
2023-08-10T23:20:40.608Z,8.20
2023-08-10T23:23:08.257Z,7.72
2023-08-10T23:25:35.906Z,6.78
2023-08-10T23:28:03.112Z,8.48
2023-08-10T23:30:32.039Z,6.28
2023-08-10T23:32:59.152Z,9.20
2023-08-10T23:35:27.213Z,8.40
2023-08-10T23:37:57.295Z,6.57
2023-08-10T23:40:25.465Z,9.18
2023-08-10T23:42:52.493Z,9.07
2023-08-10T23:45:20.495Z,10.52
2023-08-10T23:47:48.498Z,9.65
2023-08-10T23:50:15.468Z,7.60
2023-08-10T23:52:44.294Z,10.63
2023-08-10T23:55:11.479Z,12.23
2023-08-10T23:57:38.492Z,8.15
